Terminal Aerodrome Forecast
Issued by NWS North Platte, NE

Home | Current Version | Previous Version | Text Only | Print | Product List | Glossary On
Versions: 1 2 3 4 5 6 7 8 9 10 11 12 13
000
FTUS43 KLBF 230817 AAB
TAFLBF
TAF AMD
KLBF 230817Z 2308/2406 32012KT P6SM SCT120 WS020/34045KT
     FM231300 32013KT P6SM SCT120
     FM231800 32025G35KT P6SM SCT090
     FM232300 33019G27KT P6SM FEW200=

USA.gov is the U.S. government's official web portal to all federal, state and local government web resources and services.